Palm Springs, CA

2:08 PM PDT on March 31, 2015 (GMT -0700)
Desert Resorts Regional | | Change Station
CLOSE
Current Station
Airport
Location: Thermal,
Elevation: -115 ft
Nearby Weather Stations
Active Advisory: Wind Advisory

Elev -115 ft 33.63 °N, 116.16 °W | Updated 16 minutes ago

Clear
Clear
89 °F
Feels Like 89 °F
N
7
Wind Variable Wind from SE

Today
High -- | Low -- °F
--% Chance of Precip.
Yesterday
High -- | Low -- °F
Precip. -- in
6:35 AM 7:06 PM
Waxing Gibbous, 89% visible
Pressure 29.86 in
Visibility 10.0 miles
Clouds Clear
Dew Point 37 °F
Humidity 16%
Rainfall 0.00 in
Snow Depth Not available.
UV 9 out of 12
Pollen 9.50 out of 12
Air Quality Not available.
Flu Activity Not available.
METAR KTRM 312052Z AUTO 13006KT 10SM CLR 32/03 A2982 RMK AO2 SLP109 T03170028 58025 TSNO

More Conditions Fewer Conditions

Pressure 29.86 in
Visibility 10.0 miles
Clouds Clear
Dew Point 37 °F
Humidity 16%
Rainfall 0.00 in
Snow Depth Not available.
UV 9 out of 12
Pollen 9.50 out of 12
Air Quality Not available.
Flu Activity Not available.
METAR KTRM 312052Z AUTO 13006KT 10SM CLR 32/03 A2982 RMK AO2 SLP109 T03170028 58025 TSNO

More Conditions Fewer Conditions

10-Day Weather Forecast

Almanac

Astronomy

Mar. 31, 2015 Rise Set
Actual Time
Civil Twilight
Nautical Twilight
Astronomical Twilight
Moon
Length of Visible Light
Length of Day
Tomorrow will be .
, % of the Moon is Illuminated

Today's Extremes

State Highs State Lows

Community

WunderPhotos

Upload Photos

1,809,834 photos uploaded!

WunderBlogs® & News

Nearby

Air Quality

  Air Quality AQ Index Pollutant
Not available.

Snow Depth

Station Depth Elevation

Earthquake Activity

City Distance Mag. Time & Date
Minimum magnitude displayed is 2.5.

Coastal Water Temperatures

Place Temperature

Stations

Nearby Weather Stations

Station Location Temp. Windchill Dew Point Humidity Wind Precip. Elev Updated Type
                   
Wind Advisory
Statement as of 1:37 PM PDT on March 31, 2015

... Wind Advisory remains in effect until 3 am PDT Wednesday...

* winds... areas of west winds 20 to 30 mph with gusts to 45 mph.
Isolated gusts to 55 mph in the northern Coachella Valley.

* Location... strongest winds near the desert slopes of the
mountains... and in the northern and eastern portions of the
Coachella Valley.

* Visibility... locally reduced in blowing sand and blowing dust.

Precautionary/preparedness actions...

A Wind Advisory means that winds of 35 mph are expected. Winds
this strong can make driving difficult... especially for high
profile vehicles. Use extra caution.



Moede